createdAt,value
2018-12-29T00:00:54.653Z,92.29
2018-12-29T00:01:54.640Z,92.29
2018-12-29T00:02:54.534Z,92.85
2018-12-29T00:03:54.477Z,92.76
2018-12-29T00:04:54.416Z,93.32
2018-12-29T00:05:54.360Z,93.51
2018-12-29T00:06:54.325Z,93.61
2018-12-29T00:07:54.249Z,93.61
2018-12-29T00:08:54.171Z,93.42
2018-12-29T00:09:54.121Z,93.42
2018-12-29T00:10:54.085Z,93.89
2018-12-29T00:11:53.988Z,95.12
2018-12-29T00:12:53.934Z,94.93
2018-12-29T00:13:53.869Z,95.50
2018-12-29T00:14:55.153Z,95.50
2018-12-29T00:15:53.782Z,94.74
2018-12-29T00:16:53.691Z,94.46
2018-12-29T00:17:53.668Z,92.57
2018-12-29T00:18:53.570Z,93.51
2018-12-29T00:19:53.515Z,93.80
2018-12-29T00:20:53.447Z,93.42
2018-12-29T00:21:53.387Z,93.51
2018-12-29T00:22:53.360Z,94.18
2018-12-29T00:23:53.268Z,93.13
2018-12-29T00:24:53.207Z,93.99
2018-12-29T00:25:53.178Z,92.94
2018-12-29T00:26:53.087Z,91.96
2018-12-29T00:27:53.025Z,92.61
2018-12-29T00:28:52.967Z,91.67
2018-12-29T00:29:52.904Z,91.63
2018-12-29T00:30:52.880Z,90.59
2018-12-29T00:31:52.801Z,89.73
2018-12-29T00:32:52.726Z,89.45
2018-12-29T00:33:52.678Z,88.23
2018-12-29T00:34:52.604Z,87.75
2018-12-29T00:35:52.585Z,87.56
2018-12-29T00:36:52.484Z,87.09
2018-12-29T00:37:52.457Z,86.90
2018-12-29T00:38:52.368Z,85.86
2018-12-29T00:39:52.303Z,85.68
2018-12-29T00:40:52.247Z,86.05
2018-12-29T00:41:52.227Z,85.49
2018-12-29T00:42:52.126Z,84.64
2018-12-29T00:43:52.063Z,84.07
2018-12-29T00:44:52.010Z,84.77
2018-12-29T00:45:51.941Z,83.59
2018-12-29T00:46:51.924Z,84.30
2018-12-29T00:47:51.825Z,83.54
2018-12-29T00:48:51.763Z,84.26
2018-12-29T00:49:51.701Z,83.40
2018-12-29T00:50:51.641Z,82.75
2018-12-29T00:51:51.609Z,83.69
2018-12-29T00:52:51.520Z,83.78
2018-12-29T00:53:51.490Z,84.54
2018-12-29T00:54:51.399Z,84.07
2018-12-29T00:55:51.338Z,83.59
2018-12-29T00:56:51.282Z,83.03
2018-12-29T00:57:51.219Z,82.56
2018-12-29T00:58:51.211Z,83.12
2018-12-29T00:59:51.100Z,83.50
2018-12-29T01:00:51.037Z,84.45
2018-12-29T01:01:50.978Z,84.92
2018-12-29T01:02:50.917Z,84.73
2018-12-29T01:03:50.888Z,84.86
2018-12-29T01:04:50.798Z,83.88
2018-12-29T01:05:50.780Z,84.77
2018-12-29T01:06:50.679Z,84.64
2018-12-29T01:07:50.615Z,84.11
2018-12-29T01:08:50.560Z,84.01
2018-12-29T01:09:50.499Z,83.50
2018-12-29T01:10:50.472Z,83.88
2018-12-29T01:11:50.376Z,84.11
2018-12-29T01:12:50.317Z,84.01
2018-12-29T01:13:50.254Z,84.68
2018-12-29T01:14:50.226Z,83.92
2018-12-29T01:15:50.132Z,83.83
2018-12-29T01:16:50.078Z,83.45
2018-12-29T01:17:50.012Z,83.17
2018-12-29T01:18:49.953Z,82.98
2018-12-29T01:19:49.925Z,83.36
2018-12-29T01:20:49.834Z,82.79
2018-12-29T01:21:49.776Z,82.65
2018-12-29T01:22:49.714Z,83.17
2018-12-29T01:23:49.649Z,82.98
2018-12-29T01:24:49.631Z,82.50
2018-12-29T01:25:49.533Z,83.07
2018-12-29T01:26:49.471Z,83.36
2018-12-29T01:27:49.415Z,82.88
2018-12-29T01:28:49.348Z,82.60
2018-12-29T01:29:49.330Z,82.50
2018-12-29T01:30:49.229Z,82.98
2018-12-29T01:31:49.176Z,81.93
2018-12-29T01:32:49.109Z,82.12
2018-12-29T01:33:49.048Z,82.79
2018-12-29T01:34:49.022Z,81.93
2018-12-29T01:35:48.929Z,81.65
2018-12-29T01:36:48.928Z,81.80
2018-12-29T01:37:48.812Z,81.84
2018-12-29T01:38:48.747Z,81.93
2018-12-29T01:39:48.684Z,81.84
2018-12-29T01:40:48.677Z,80.90
2018-12-29T01:41:48.572Z,81.56
2018-12-29T01:42:48.504Z,80.76
2018-12-29T01:43:48.448Z,81.37
2018-12-29T01:44:48.385Z,81.56
2018-12-29T01:45:48.364Z,81.18
2018-12-29T01:46:48.266Z,81.84
2018-12-29T01:47:48.202Z,81.27
2018-12-29T01:48:48.142Z,81.37
2018-12-29T01:49:48.083Z,81.56
2018-12-29T01:50:48.054Z,81.18
2018-12-29T01:51:47.974Z,81.46
2018-12-29T01:52:47.930Z,81.65
2018-12-29T01:53:47.841Z,82.69
2018-12-29T01:54:47.785Z,82.98
2018-12-29T01:55:47.718Z,82.98
2018-12-29T01:56:47.662Z,83.45
2018-12-29T01:57:47.645Z,82.88
2018-12-29T01:58:47.540Z,82.50
2018-12-29T01:59:47.477Z,82.50
2018-12-29T02:00:47.426Z,83.17
2018-12-29T02:01:47.360Z,83.07
2018-12-29T02:02:47.328Z,83.83
2018-12-29T02:03:47.245Z,84.01
2018-12-29T02:04:47.177Z,83.92
2018-12-29T02:05:47.153Z,84.77
2018-12-29T02:06:47.089Z,86.00
2018-12-29T02:07:46.994Z,85.72
2018-12-29T02:08:46.975Z,85.91
2018-12-29T02:09:46.881Z,85.62
2018-12-29T02:10:46.816Z,84.86
2018-12-29T02:11:46.754Z,84.96
2018-12-29T02:12:46.697Z,84.96
2018-12-29T02:13:46.675Z,85.43
2018-12-29T02:14:46.576Z,85.43
2018-12-29T02:15:46.512Z,85.62
2018-12-29T02:16:46.453Z,85.53
2018-12-29T02:17:46.392Z,85.91
2018-12-29T02:18:46.363Z,85.91
2018-12-29T02:19:46.275Z,85.15
2018-12-29T02:20:46.212Z,85.81
2018-12-29T02:21:46.158Z,85.15
2018-12-29T02:22:46.101Z,85.05
2018-12-29T02:23:46.060Z,85.05
2018-12-29T02:24:46.004Z,85.24
2018-12-29T02:25:45.909Z,85.53
2018-12-29T02:26:45.848Z,85.05
2018-12-29T02:27:45.792Z,84.86
2018-12-29T02:28:45.728Z,85.05
2018-12-29T02:29:45.707Z,85.15
2018-12-29T02:30:45.624Z,85.05
2018-12-29T02:31:45.549Z,84.49
2018-12-29T02:32:45.493Z,84.49
2018-12-29T02:33:45.436Z,83.92
2018-12-29T02:34:45.421Z,83.07
2018-12-29T02:35:45.310Z,83.36
2018-12-29T02:36:45.249Z,83.17
2018-12-29T02:37:45.188Z,83.73
2018-12-29T02:38:45.135Z,83.83
2018-12-29T02:39:45.111Z,82.98
2018-12-29T02:40:45.009Z,82.50
2018-12-29T02:41:44.948Z,83.17
2018-12-29T02:42:44.899Z,82.88
2018-12-29T02:43:44.827Z,82.41
2018-12-29T02:44:44.807Z,82.22
2018-12-29T02:45:44.707Z,82.60
2018-12-29T02:46:44.645Z,82.50
2018-12-29T02:47:44.582Z,82.50
2018-12-29T02:48:44.528Z,82.98
2018-12-29T02:49:44.497Z,83.07
2018-12-29T02:50:44.435Z,82.98
2018-12-29T02:51:44.340Z,82.88
2018-12-29T02:52:44.315Z,83.45
2018-12-29T02:53:44.221Z,82.69
2018-12-29T02:54:44.163Z,82.60
2018-12-29T02:55:44.101Z,82.60
2018-12-29T02:56:44.041Z,82.03
2018-12-29T02:57:44.015Z,82.22
2018-12-29T02:58:43.923Z,81.93
2018-12-29T02:59:43.862Z,82.60
2018-12-29T03:00:43.799Z,82.41
2018-12-29T03:01:43.750Z,81.18
2018-12-29T03:02:43.712Z,81.65
2018-12-29T03:03:43.618Z,81.56
2018-12-29T03:04:43.567Z,82.03
2018-12-29T03:05:43.533Z,81.27
2018-12-29T03:06:43.442Z,82.79
2018-12-29T03:07:43.390Z,82.79
2018-12-29T03:08:43.324Z,82.69
2018-12-29T03:09:43.259Z,82.50
2018-12-29T03:10:43.239Z,82.03
2018-12-29T03:11:43.140Z,82.69
2018-12-29T03:12:43.078Z,82.41
2018-12-29T03:13:43.022Z,83.36
2018-12-29T03:14:42.956Z,82.98
2018-12-29T03:15:42.996Z,82.50
2018-12-29T03:16:42.836Z,82.03
2018-12-29T03:17:42.774Z,81.93
2018-12-29T03:18:42.722Z,81.93
2018-12-29T03:19:42.655Z,81.09
2018-12-29T03:20:42.630Z,81.09
2018-12-29T03:21:42.573Z,81.46
2018-12-29T03:22:42.474Z,81.37
2018-12-29T03:23:42.418Z,80.80
2018-12-29T03:24:42.355Z,80.43
2018-12-29T03:25:42.293Z,80.24
2018-12-29T03:26:42.265Z,80.24
2018-12-29T03:27:42.181Z,80.62
2018-12-29T03:28:42.119Z,80.05
2018-12-29T03:29:42.056Z,79.76
2018-12-29T03:30:41.996Z,79.67
2018-12-29T03:31:41.996Z,79.48
2018-12-29T03:32:41.877Z,80.14
2018-12-29T03:33:41.813Z,80.14
2018-12-29T03:34:41.768Z,80.05
2018-12-29T03:35:41.694Z,79.48
2018-12-29T03:36:41.676Z,79.67
2018-12-29T03:37:41.572Z,79.76
2018-12-29T03:38:41.512Z,79.57
2018-12-29T03:39:41.489Z,79.19
2018-12-29T03:40:41.394Z,78.34
2018-12-29T03:41:41.329Z,78.53
2018-12-29T03:42:41.281Z,77.97
2018-12-29T03:43:41.208Z,77.87
2018-12-29T03:44:41.182Z,77.87
2018-12-29T03:45:48.861Z,77.69
2018-12-29T03:46:41.029Z,77.78
2018-12-29T03:47:40.968Z,77.31
2018-12-29T03:48:40.916Z,77.40
2018-12-29T03:49:40.882Z,77.59
2018-12-29T03:50:40.789Z,77.78
2018-12-29T03:51:40.759Z,77.97
2018-12-29T03:52:40.664Z,77.97
2018-12-29T03:53:40.608Z,77.87
2018-12-29T03:54:40.550Z,77.40
2018-12-29T03:55:40.484Z,77.78
2018-12-29T03:56:40.459Z,78.16
2018-12-29T03:57:40.368Z,77.78
2018-12-29T03:58:40.307Z,77.97
2018-12-29T03:59:40.284Z,77.78
2018-12-29T04:00:40.182Z,77.69
2018-12-29T04:01:40.123Z,77.40
2018-12-29T04:02:40.061Z,78.25
2018-12-29T04:03:40.005Z,78.44
2018-12-29T04:04:39.974Z,77.78
2018-12-29T04:05:39.887Z,77.87
2018-12-29T04:06:39.821Z,77.78
2018-12-29T04:07:39.762Z,78.44
2018-12-29T04:08:39.745Z,78.25
2018-12-29T04:09:39.650Z,78.25
2018-12-29T04:10:39.584Z,78.53
2018-12-29T04:11:39.585Z,78.53
2018-12-29T04:12:39.477Z,78.06
2018-12-29T04:13:39.432Z,78.72
2018-12-29T04:14:39.339Z,78.25
2018-12-29T04:15:39.282Z,78.16
2018-12-29T04:16:39.219Z,77.78
2018-12-29T04:17:39.156Z,77.02
2018-12-29T04:18:39.137Z,76.93
2018-12-29T04:19:39.039Z,77.40
2018-12-29T04:20:38.982Z,77.12
2018-12-29T04:21:38.920Z,76.74
2018-12-29T04:22:38.858Z,76.83
2018-12-29T04:23:38.841Z,77.21
2018-12-29T04:24:38.741Z,77.12
2018-12-29T04:25:38.677Z,77.31
2018-12-29T04:26:38.624Z,76.26
2018-12-29T04:27:38.587Z,76.07
2018-12-29T04:28:38.530Z,76.07
2018-12-29T04:29:38.439Z,76.64
2018-12-29T04:30:38.411Z,76.55
2018-12-29T04:31:38.324Z,76.45
2018-12-29T04:32:38.255Z,76.93
2018-12-29T04:33:38.193Z,76.93
2018-12-29T04:34:38.133Z,77.12
2018-12-29T04:35:38.104Z,76.64
2018-12-29T04:36:38.016Z,77.21
2018-12-29T04:37:37.955Z,77.31
2018-12-29T04:38:37.896Z,77.21
2018-12-29T04:39:37.832Z,77.40
2018-12-29T04:40:37.803Z,76.36
2018-12-29T04:41:37.712Z,77.02
2018-12-29T04:42:37.653Z,76.55
2018-12-29T04:43:37.623Z,76.36
2018-12-29T04:44:37.537Z,76.17
2018-12-29T04:45:37.473Z,76.45
2018-12-29T04:46:37.409Z,76.26
2018-12-29T04:47:37.354Z,77.12
2018-12-29T04:48:37.321Z,77.31
2018-12-29T04:49:37.228Z,76.55
2018-12-29T04:50:37.194Z,76.55
2018-12-29T04:51:37.106Z,76.36
2018-12-29T04:52:37.047Z,76.74
2018-12-29T04:53:36.993Z,76.26
2018-12-29T04:54:36.925Z,76.64
2018-12-29T04:55:36.901Z,77.02
2018-12-29T04:56:36.817Z,76.83
2018-12-29T04:57:36.748Z,76.26
2018-12-29T04:58:36.687Z,75.89
2018-12-29T04:59:36.628Z,75.89
2018-12-29T05:00:36.600Z,75.79
2018-12-29T05:01:36.511Z,76.36
2018-12-29T05:02:36.450Z,76.55
2018-12-29T05:03:36.385Z,76.36
2018-12-29T05:04:36.326Z,76.74
2018-12-29T05:05:36.296Z,77.50
2018-12-29T05:06:36.208Z,77.02
2018-12-29T05:07:36.176Z,77.02
2018-12-29T05:08:36.083Z,77.40
2018-12-29T05:09:36.024Z,76.55
2018-12-29T05:10:35.965Z,77.50
2018-12-29T05:11:35.933Z,76.45
2018-12-29T05:12:35.873Z,77.40
2018-12-29T05:13:35.817Z,77.12
2018-12-29T05:14:35.735Z,77.12
2018-12-29T05:15:35.668Z,77.21
2018-12-29T05:16:35.599Z,77.02
2018-12-29T05:17:35.581Z,77.40
2018-12-29T05:18:35.479Z,76.45
2018-12-29T05:19:35.418Z,76.55
2018-12-29T05:20:35.381Z,76.55
2018-12-29T05:21:35.305Z,76.45
2018-12-29T05:22:35.277Z,76.74
2018-12-29T05:23:35.181Z,76.36
2018-12-29T05:24:35.149Z,76.55
2018-12-29T05:25:35.060Z,76.74
2018-12-29T05:26:34.998Z,76.45
2018-12-29T05:27:34.977Z,76.36
2018-12-29T05:28:34.880Z,76.36
2018-12-29T05:29:34.821Z,76.26
2018-12-29T05:30:34.766Z,77.12
2018-12-29T05:31:34.703Z,77.02
2018-12-29T05:32:34.676Z,77.21
2018-12-29T05:33:34.593Z,77.50
2018-12-29T05:34:34.517Z,77.59
2018-12-29T05:35:34.494Z,77.21
2018-12-29T05:36:34.407Z,77.40
2018-12-29T05:37:34.360Z,77.59
2018-12-29T05:38:34.276Z,77.31
2018-12-29T05:39:34.224Z,76.74
2018-12-29T05:40:34.200Z,76.93
2018-12-29T05:41:34.095Z,76.74
2018-12-29T05:42:34.034Z,76.93
2018-12-29T05:43:33.977Z,76.36
2018-12-29T05:44:33.914Z,76.74
2018-12-29T05:45:33.886Z,76.36
2018-12-29T05:46:33.796Z,76.55
2018-12-29T05:47:33.734Z,76.26
2018-12-29T05:48:33.719Z,75.79
2018-12-29T05:49:33.615Z,75.70
2018-12-29T05:50:33.554Z,75.70
2018-12-29T05:51:33.495Z,75.42
2018-12-29T05:52:33.430Z,75.23
2018-12-29T05:53:33.410Z,75.32
2018-12-29T05:54:33.316Z,75.04
2018-12-29T05:55:33.254Z,74.66
2018-12-29T05:56:33.191Z,75.04
2018-12-29T05:57:33.133Z,74.85
2018-12-29T05:58:33.121Z,74.95
2018-12-29T05:59:33.049Z,75.51
2018-12-29T06:00:32.951Z,75.60
2018-12-29T06:01:32.888Z,75.13
2018-12-29T06:02:32.910Z,75.13
2018-12-29T06:03:32.779Z,74.85
2018-12-29T06:04:32.747Z,74.85
2018-12-29T06:05:32.650Z,75.13
2018-12-29T06:06:32.595Z,75.04
2018-12-29T06:07:32.526Z,74.85
2018-12-29T06:08:32.473Z,75.04
2018-12-29T06:09:32.445Z,74.76
2018-12-29T06:10:32.348Z,75.32
2018-12-29T06:11:32.291Z,74.66
2018-12-29T06:12:32.225Z,74.85
2018-12-29T06:13:32.167Z,75.32
2018-12-29T06:14:32.136Z,74.66
2018-12-29T06:15:32.048Z,74.76
2018-12-29T06:16:31.986Z,74.57
2018-12-29T06:17:31.965Z,74.57
2018-12-29T06:18:31.865Z,74.57
2018-12-29T06:19:31.804Z,74.09
2018-12-29T06:20:31.742Z,74.57
2018-12-29T06:21:31.682Z,74.66
2018-12-29T06:22:31.659Z,75.04
2018-12-29T06:23:31.563Z,74.85
2018-12-29T06:24:31.503Z,75.23
2018-12-29T06:25:31.475Z,75.13
2018-12-29T06:26:31.382Z,75.42
2018-12-29T06:27:31.321Z,75.32
2018-12-29T06:28:31.258Z,74.76
2018-12-29T06:29:31.233Z,74.76
2018-12-29T06:30:31.149Z,75.04
2018-12-29T06:31:31.079Z,74.85
2018-12-29T06:32:31.063Z,75.70
2018-12-29T06:33:30.962Z,75.70
2018-12-29T06:34:30.899Z,75.51
2018-12-29T06:35:30.840Z,75.70
2018-12-29T06:36:30.780Z,75.32
2018-12-29T06:37:30.756Z,75.60
2018-12-29T06:38:30.660Z,75.98
2018-12-29T06:39:30.609Z,75.98
2018-12-29T06:40:30.547Z,75.70
2018-12-29T06:41:30.476Z,75.51
2018-12-29T06:42:30.460Z,75.23
2018-12-29T06:43:30.361Z,75.42
2018-12-29T06:44:30.301Z,75.42
2018-12-29T06:45:30.281Z,75.60
2018-12-29T06:46:34.912Z,75.70
2018-12-29T06:47:30.152Z,75.98
2018-12-29T06:48:30.056Z,75.79
2018-12-29T06:49:30.002Z,75.79
2018-12-29T06:50:29.936Z,75.32
2018-12-29T06:51:29.875Z,75.70
2018-12-29T06:52:29.845Z,76.26
2018-12-29T06:53:29.752Z,76.26
2018-12-29T06:54:29.705Z,75.89
2018-12-29T06:55:29.639Z,76.17
2018-12-29T06:56:29.578Z,75.98
2018-12-29T06:57:29.552Z,76.26
2018-12-29T06:58:29.455Z,75.79
2018-12-29T06:59:29.393Z,76.36
2018-12-29T07:00:29.331Z,76.55
2018-12-29T07:01:29.272Z,76.83
2018-12-29T07:02:29.243Z,76.74
2018-12-29T07:03:29.149Z,76.26
2018-12-29T07:04:29.092Z,76.74
2018-12-29T07:05:29.029Z,76.45
2018-12-29T07:06:29.012Z,77.31
2018-12-29T07:07:28.910Z,77.02
2018-12-29T07:08:28.855Z,77.12
2018-12-29T07:09:28.789Z,77.12
2018-12-29T07:10:28.733Z,76.26
2018-12-29T07:11:28.702Z,75.89
2018-12-29T07:12:28.609Z,76.36
2018-12-29T07:13:28.554Z,76.55
2018-12-29T07:14:28.489Z,76.55
2018-12-29T07:15:28.426Z,76.36
2018-12-29T07:16:28.397Z,76.36
2018-12-29T07:17:28.344Z,76.36
2018-12-29T07:18:28.247Z,76.17
2018-12-29T07:19:28.188Z,75.60
2018-12-29T07:20:28.137Z,76.26
2018-12-29T07:21:28.075Z,75.70
2018-12-29T07:22:28.040Z,75.60
2018-12-29T07:23:27.947Z,75.60
2018-12-29T07:24:27.890Z,75.04
2018-12-29T07:25:27.827Z,75.70
2018-12-29T07:26:27.764Z,75.79
2018-12-29T07:27:27.751Z,76.45
2018-12-29T07:28:27.645Z,76.55
2018-12-29T07:29:27.608Z,76.83
2018-12-29T07:30:27.564Z,77.31
2018-12-29T07:31:27.466Z,77.40
2018-12-29T07:32:27.401Z,77.21
2018-12-29T07:33:27.342Z,77.31
2018-12-29T07:34:27.284Z,77.21
2018-12-29T07:35:27.257Z,77.40
2018-12-29T07:36:27.159Z,77.40
2018-12-29T07:37:27.103Z,77.87
2018-12-29T07:38:27.088Z,77.97
2018-12-29T07:39:26.979Z,77.78
2018-12-29T07:40:26.921Z,77.21
2018-12-29T07:41:26.860Z,77.59
2018-12-29T07:42:26.799Z,77.40
2018-12-29T07:43:26.789Z,77.59
2018-12-29T07:44:26.679Z,77.40
2018-12-29T07:45:26.626Z,77.69
2018-12-29T07:46:26.558Z,77.69
2018-12-29T07:47:26.505Z,78.25
2018-12-29T07:48:26.480Z,78.72
2018-12-29T07:49:26.378Z,78.63
2018-12-29T07:50:26.323Z,78.25
2018-12-29T07:51:26.259Z,78.44
2018-12-29T07:52:26.198Z,78.63
2018-12-29T07:53:26.171Z,78.44
2018-12-29T07:54:26.080Z,79.10
2018-12-29T07:55:26.021Z,79.48
2018-12-29T07:56:25.993Z,78.81
2018-12-29T07:57:25.903Z,79.67
2018-12-29T07:58:25.858Z,79.67
2018-12-29T07:59:25.796Z,80.05
2018-12-29T08:00:25.717Z,80.52
2018-12-29T08:01:25.692Z,80.62
2018-12-29T08:02:25.594Z,80.52
2018-12-29T08:03:25.568Z,80.71
2018-12-29T08:04:25.475Z,80.80
2018-12-29T08:05:25.414Z,80.62
2018-12-29T08:06:25.355Z,80.71
2018-12-29T08:07:25.328Z,81.56
2018-12-29T08:08:25.235Z,80.99
2018-12-29T08:09:25.177Z,81.37
2018-12-29T08:10:25.115Z,80.62
2018-12-29T08:11:25.055Z,80.52
2018-12-29T08:12:25.025Z,80.90
2018-12-29T08:13:24.997Z,80.99
2018-12-29T08:14:24.882Z,81.37
2018-12-29T08:15:24.815Z,81.46
2018-12-29T08:16:24.753Z,80.99
2018-12-29T08:17:24.733Z,80.24
2018-12-29T08:18:24.665Z,79.76
2018-12-29T08:19:24.574Z,80.18
2018-12-29T08:20:24.548Z,80.43
2018-12-29T08:21:24.458Z,80.52
2018-12-29T08:22:24.395Z,81.03
2018-12-29T08:23:24.367Z,80.43
2018-12-29T08:24:24.278Z,80.84
2018-12-29T08:25:24.249Z,79.76
2018-12-29T08:26:24.191Z,79.80
2018-12-29T08:27:24.098Z,79.76
2018-12-29T08:28:24.043Z,80.14
2018-12-29T08:29:23.974Z,80.33
2018-12-29T08:30:23.952Z,80.43
2018-12-29T08:31:23.860Z,80.56
2018-12-29T08:32:23.791Z,79.99
2018-12-29T08:33:23.733Z,80.08
2018-12-29T08:34:23.708Z,79.99
2018-12-29T08:35:23.612Z,80.18
2018-12-29T08:36:23.587Z,80.75
2018-12-29T08:37:23.495Z,81.03
2018-12-29T08:38:23.467Z,80.43
2018-12-29T08:39:23.375Z,81.27
2018-12-29T08:40:23.315Z,81.22
2018-12-29T08:41:23.252Z,80.80
2018-12-29T08:42:23.208Z,80.56
2018-12-29T08:43:23.165Z,79.61
2018-12-29T08:44:23.081Z,79.52
2018-12-29T08:45:23.014Z,78.95
2018-12-29T08:46:22.960Z,79.61
2018-12-29T08:47:22.939Z,79.52
2018-12-29T08:48:22.835Z,78.95
2018-12-29T08:49:22.779Z,78.91
2018-12-29T08:50:22.717Z,78.01
2018-12-29T08:51:22.657Z,78.10
2018-12-29T08:52:22.633Z,77.63
2018-12-29T08:53:22.537Z,77.06
2018-12-29T08:54:22.481Z,77.44
2018-12-29T08:55:22.416Z,77.44
2018-12-29T08:56:22.354Z,77.34
2018-12-29T08:57:22.338Z,77.91
2018-12-29T08:58:22.236Z,77.34
2018-12-29T08:59:22.174Z,76.97
2018-12-29T09:00:22.115Z,76.87
2018-12-29T09:01:22.058Z,76.97
2018-12-29T09:02:22.027Z,76.40
2018-12-29T09:03:22.600Z,76.59
2018-12-29T09:04:21.876Z,76.50
2018-12-29T09:05:21.820Z,77.25
2018-12-29T09:06:21.787Z,77.25
2018-12-29T09:07:21.699Z,77.25
2018-12-29T09:08:21.634Z,77.82
2018-12-29T09:09:21.581Z,77.44
2018-12-29T09:10:21.563Z,77.63
2018-12-29T09:11:21.458Z,77.72
2018-12-29T09:12:21.401Z,77.72
2018-12-29T09:13:21.338Z,77.44
2018-12-29T09:14:21.280Z,77.91
2018-12-29T09:15:21.261Z,78.76
2018-12-29T09:16:21.162Z,78.58
2018-12-29T09:17:21.104Z,78.58
2018-12-29T09:18:21.039Z,78.86
2018-12-29T09:19:27.181Z,79.14
2018-12-29T09:20:20.950Z,78.86
2018-12-29T09:21:20.856Z,79.61
2018-12-29T09:22:20.799Z,79.61
2018-12-29T09:23:20.736Z,80.37
2018-12-29T09:24:20.680Z,80.94
2018-12-29T09:25:20.650Z,80.37
2018-12-29T09:26:20.634Z,80.75
2018-12-29T09:27:20.499Z,81.32
2018-12-29T09:28:20.472Z,81.98
2018-12-29T09:29:20.382Z,82.35
2018-12-29T09:30:20.353Z,82.73
2018-12-29T09:31:20.263Z,82.45
2018-12-29T09:32:20.209Z,82.64
2018-12-29T09:33:20.143Z,82.45
2018-12-29T09:34:22.595Z,82.83
2018-12-29T09:35:20.059Z,83.30
2018-12-29T09:36:21.326Z,82.54
2018-12-29T09:37:19.906Z,82.73
2018-12-29T09:38:19.844Z,83.21
2018-12-29T09:39:19.824Z,82.92
2018-12-29T09:40:19.729Z,83.49
2018-12-29T09:41:19.667Z,83.49
2018-12-29T09:42:19.608Z,83.78
2018-12-29T09:43:19.547Z,83.21
2018-12-29T09:44:19.525Z,83.49
2018-12-29T09:45:19.427Z,82.54
2018-12-29T09:46:19.416Z,82.07
2018-12-29T09:47:19.791Z,81.79
2018-12-29T09:48:19.248Z,82.17
2018-12-29T09:49:19.189Z,82.26
2018-12-29T09:50:19.146Z,82.45
2018-12-29T09:51:19.100Z,82.54
2018-12-29T09:52:19.015Z,82.45
2018-12-29T09:53:18.948Z,82.54
2018-12-29T09:54:18.892Z,82.45
2018-12-29T09:55:18.833Z,83.30
2018-12-29T09:56:18.805Z,82.45
2018-12-29T09:57:18.717Z,82.54
2018-12-29T09:58:18.655Z,82.92
2018-12-29T09:59:18.636Z,82.54
2018-12-29T10:00:18.543Z,82.17
2018-12-29T10:01:18.485Z,81.70
2018-12-29T10:02:18.415Z,81.60
2018-12-29T10:03:18.358Z,81.79
2018-12-29T10:04:18.326Z,81.13
2018-12-29T10:05:18.234Z,80.65
2018-12-29T10:06:18.174Z,81.03
2018-12-29T10:07:18.116Z,81.32
2018-12-29T10:08:18.055Z,81.32
2018-12-29T10:09:18.031Z,80.94
2018-12-29T10:10:17.936Z,80.65
2018-12-29T10:11:17.880Z,81.13
2018-12-29T10:12:17.853Z,81.13
2018-12-29T10:13:17.792Z,81.60
2018-12-29T10:14:17.702Z,81.03
2018-12-29T10:15:17.649Z,81.03
2018-12-29T10:16:17.579Z,81.60
2018-12-29T10:17:17.557Z,81.03
2018-12-29T10:18:17.460Z,80.37
2018-12-29T10:19:17.402Z,80.75
2018-12-29T10:20:17.343Z,80.18
2018-12-29T10:21:17.297Z,80.56
2018-12-29T10:22:17.263Z,81.03
2018-12-29T10:23:17.164Z,80.94
2018-12-29T10:24:17.101Z,79.90
2018-12-29T10:25:17.057Z,79.05
2018-12-29T10:26:17.024Z,78.48
2018-12-29T10:27:16.955Z,78.48
2018-12-29T10:28:16.896Z,78.76
2018-12-29T10:29:16.805Z,78.76
2018-12-29T10:30:16.746Z,78.01
2018-12-29T10:31:16.692Z,77.82
2018-12-29T10:32:16.626Z,77.82
2018-12-29T10:33:16.603Z,78.01
2018-12-29T10:34:16.509Z,77.91
2018-12-29T10:35:16.446Z,77.72
2018-12-29T10:36:16.385Z,77.25
2018-12-29T10:37:16.362Z,77.34
2018-12-29T10:38:16.270Z,77.15
2018-12-29T10:39:16.207Z,77.34
2018-12-29T10:40:16.187Z,77.44
2018-12-29T10:41:16.100Z,77.25
2018-12-29T10:42:16.065Z,77.72
2018-12-29T10:43:15.978Z,77.25
2018-12-29T10:44:15.911Z,76.97
2018-12-29T10:45:15.848Z,77.06
2018-12-29T10:46:15.788Z,76.78
2018-12-29T10:47:15.762Z,76.21
2018-12-29T10:48:15.668Z,76.31
2018-12-29T10:49:15.610Z,76.31
2018-12-29T10:50:15.551Z,77.15
2018-12-29T10:51:15.490Z,76.50
2018-12-29T10:52:15.462Z,76.21
2018-12-29T10:53:15.408Z,76.40
2018-12-29T10:54:15.320Z,75.64
2018-12-29T10:55:15.254Z,76.31
2018-12-29T10:56:15.189Z,76.59
2018-12-29T10:57:15.132Z,77.15
2018-12-29T10:58:15.112Z,76.59
2018-12-29T10:59:15.013Z,76.50
2018-12-29T11:00:14.955Z,76.78
2018-12-29T11:01:14.895Z,76.40
2018-12-29T11:02:14.866Z,76.21
2018-12-29T11:03:14.838Z,76.21
2018-12-29T11:04:14.800Z,75.74
2018-12-29T11:05:14.654Z,75.45
2018-12-29T11:06:14.598Z,75.36
2018-12-29T11:07:14.533Z,74.41
2018-12-29T11:08:14.517Z,73.94
2018-12-29T11:09:14.414Z,73.56
2018-12-29T11:10:14.355Z,73.66
2018-12-29T11:11:14.293Z,72.80
2018-12-29T11:12:14.234Z,72.33
2018-12-29T11:13:14.235Z,72.33
2018-12-29T11:14:14.118Z,71.48
2018-12-29T11:15:14.058Z,71.20
2018-12-29T11:16:14.046Z,70.54
2018-12-29T11:17:13.934Z,70.44
2018-12-29T11:18:13.918Z,70.54
2018-12-29T11:19:13.815Z,70.06
2018-12-29T11:20:13.756Z,69.59
2018-12-29T11:21:13.702Z,69.97
2018-12-29T11:22:13.645Z,69.78
2018-12-29T11:23:13.609Z,69.49
2018-12-29T11:24:13.549Z,69.68
2018-12-29T11:25:13.460Z,69.49
2018-12-29T11:26:13.396Z,69.21
2018-12-29T11:27:13.338Z,68.84
2018-12-29T11:28:13.328Z,69.02
2018-12-29T11:29:13.217Z,69.12
2018-12-29T11:30:13.159Z,68.84
2018-12-29T11:31:13.094Z,69.12
2018-12-29T11:32:13.037Z,68.55
2018-12-29T11:33:13.014Z,68.55
2018-12-29T11:34:12.915Z,68.55
2018-12-29T11:35:12.863Z,68.84
2018-12-29T11:36:12.828Z,67.51
2018-12-29T11:37:12.736Z,67.98
2018-12-29T11:38:12.697Z,67.70
2018-12-29T11:39:12.613Z,67.60
2018-12-29T11:40:12.553Z,67.70
2018-12-29T11:41:12.527Z,67.41
2018-12-29T11:42:12.436Z,67.32
2018-12-29T11:43:12.391Z,67.22
2018-12-29T11:44:12.315Z,67.22
2018-12-29T11:45:12.287Z,67.32
2018-12-29T11:46:12.252Z,67.32
2018-12-29T11:47:12.134Z,67.13
2018-12-29T11:48:12.073Z,67.32
2018-12-29T11:49:17.949Z,67.51
2018-12-29T11:50:11.968Z,67.32
2018-12-29T11:51:11.928Z,67.32
2018-12-29T11:52:11.847Z,67.32
2018-12-29T11:53:11.777Z,67.03
2018-12-29T11:54:11.717Z,67.13
2018-12-29T11:55:11.654Z,67.03
2018-12-29T11:56:11.632Z,66.85
2018-12-29T11:57:12.016Z,66.75
2018-12-29T11:58:11.478Z,66.85
2018-12-29T11:59:11.419Z,66.66
2018-12-29T12:00:11.355Z,66.94
2018-12-29T12:01:11.302Z,66.85
2018-12-29T12:02:11.268Z,66.56
2018-12-29T12:03:11.174Z,66.56
2018-12-29T12:04:11.147Z,66.56
2018-12-29T12:05:11.055Z,66.47
2018-12-29T12:06:10.999Z,66.56
2018-12-29T12:07:10.963Z,66.47
2018-12-29T12:08:10.876Z,66.56
2018-12-29T12:09:10.820Z,66.19
2018-12-29T12:10:10.756Z,66.19
2018-12-29T12:11:10.723Z,66.19
2018-12-29T12:12:10.684Z,66.38
2018-12-29T12:13:10.579Z,66.09
2018-12-29T12:14:10.520Z,66.09
2018-12-29T12:15:10.462Z,65.81
2018-12-29T12:16:10.423Z,66.09
2018-12-29T12:17:10.373Z,66.28
2018-12-29T12:18:10.277Z,66.09
2018-12-29T12:19:10.293Z,66.38
2018-12-29T12:20:10.160Z,66.19
2018-12-29T12:21:10.103Z,66.38
2018-12-29T12:22:10.070Z,66.00
2018-12-29T12:23:09.983Z,66.38
2018-12-29T12:24:09.917Z,66.19
2018-12-29T12:25:09.895Z,66.38
2018-12-29T12:26:09.833Z,66.19
2018-12-29T12:27:09.773Z,66.19
2018-12-29T12:28:09.679Z,66.19
2018-12-29T12:29:09.620Z,66.19
2018-12-29T12:30:09.569Z,66.56
2018-12-29T12:31:09.499Z,66.47
2018-12-29T12:32:09.479Z,66.38
2018-12-29T12:33:09.388Z,66.47
2018-12-29T12:34:09.325Z,66.56
2018-12-29T12:35:09.262Z,66.00
2018-12-29T12:36:09.251Z,66.56
2018-12-29T12:37:09.145Z,66.47
2018-12-29T12:38:09.083Z,66.66
2018-12-29T12:39:09.030Z,67.03
2018-12-29T12:40:08.961Z,66.94
2018-12-29T12:41:08.936Z,67.22
2018-12-29T12:42:08.844Z,66.75
2018-12-29T12:43:08.785Z,66.56
2018-12-29T12:44:08.736Z,67.03
2018-12-29T12:45:08.664Z,66.56
2018-12-29T12:46:08.641Z,66.75
2018-12-29T12:47:08.542Z,66.75
2018-12-29T12:48:08.491Z,66.66
2018-12-29T12:49:08.426Z,66.75
2018-12-29T12:50:08.368Z,66.66
2018-12-29T12:51:08.343Z,66.85
2018-12-29T12:52:08.246Z,66.75